TimePDT,TemperatureF,Dew PointF,Humidity,Sea Level PressureIn,VisibilityMPH,Wind Direction,Wind SpeedMPH,Gust SpeedMPH,PrecipitationIn,Events,Conditions,WindDirDegrees,DateUTC
12:51 AM,77.0,55.0,47,29.82,10.0,SSE,4.6,-,N/A,,Clear,150,2013-09-08 07:51:00
1:51 AM,75.0,52.0,44,29.81,10.0,East,3.5,-,N/A,,Clear,90,2013-09-08 08:51:00
2:51 AM,75.0,51.1,43,29.81,10.0,Calm,Calm,-,N/A,,Clear,0,2013-09-08 09:51:00
3:51 AM,73.9,51.1,45,29.80,10.0,Calm,Calm,-,N/A,,Clear,0,2013-09-08 10:51:00
4:51 AM,72.0,55.0,55,29.81,10.0,Calm,Calm,-,N/A,,Clear,0,2013-09-08 11:51:00
5:51 AM,71.1,54.0,55,29.81,10.0,Calm,Calm,-,N/A,,Clear,0,2013-09-08 12:51:00
6:51 AM,71.1,55.0,57,29.82,10.0,Calm,Calm,-,N/A,,Clear,0,2013-09-08 13:51:00
7:51 AM,73.9,53.1,48,29.83,10.0,Calm,Calm,-,N/A,,Clear,0,2013-09-08 14:51:00
8:51 AM,78.1,53.1,42,29.83,10.0,Calm,Calm,-,N/A,,Clear,0,2013-09-08 15:51:00
9:51 AM,84.0,48.9,29,29.82,10.0,Calm,Calm,-,N/A,,Clear,0,2013-09-08 16:51:00
10:51 AM,89.1,48.0,24,29.82,10.0,East,5.8,-,N/A,,Clear,100,2013-09-08 17:51:00
11:51 AM,90.0,48.9,24,29.80,10.0,SSE,6.9,-,N/A,,Clear,160,2013-09-08 18:51:00
12:51 PM,93.0,48.0,21,29.78,10.0,South,8.1,-,N/A,,Clear,170,2013-09-08 19:51:00
1:51 PM,93.9,48.9,21,29.76,10.0,SE,9.2,-,N/A,,Partly Cloudy,140,2013-09-08 20:51:00
2:51 PM,91.9,50.0,24,29.74,10.0,SE,10.4,-,N/A,,Partly Cloudy,140,2013-09-08 21:51:00
3:51 PM,91.0,51.1,25,29.73,10.0,SE,9.2,-,N/A,,Clear,130,2013-09-08 22:51:00
4:51 PM,89.1,52.0,28,29.72,10.0,SE,8.1,-,N/A,,Clear,140,2013-09-08 23:51:00
5:51 PM,88.0,54.0,31,29.72,10.0,SE,5.8,-,N/A,,Clear,130,2013-09-09 00:51:00
6:51 PM,82.9,55.9,39,29.73,10.0,SE,6.9,-,N/A,,Clear,140,2013-09-09 01:51:00
7:51 PM,79.0,55.0,44,29.74,10.0,ESE,3.5,-,N/A,,Clear,110,2013-09-09 02:51:00
8:51 PM,77.0,55.9,48,29.75,10.0,SE,4.6,-,N/A,,Clear,130,2013-09-09 03:51:00
9:51 PM,75.0,55.0,50,29.76,10.0,East,3.5,-,N/A,,Clear,100,2013-09-09 04:51:00
10:51 PM,72.0,55.0,55,29.78,10.0,East,4.6,-,N/A,,Clear,90,2013-09-09 05:51:00
11:51 PM,72.0,55.0,55,29.77,10.0,East,4.6,-,N/A,,Clear,90,2013-09-09 06:51:00